Yukon, Pennsylvania
Current Conditions -  °F | °C
As of 10:50 AM on Wednesday 26 Nov 2014 (Local Time) from KLBE Reporting Station
Light Snow Light Snow  
Wind Chill: 32°   Ceiling: 1200
Heat Index: 32°   Visibility: 2mi
Dew Point: 32°   Wind: 0mph
Humidity: 100%   Direction: NA
Pressure: 30.08"   Gusts: NA
Location:  40.21°N, 79.68°W
Report Text: KLBE 261550Z 00000KT 2SM -SN BR OVC012 00/00 A3008
Loading
Personal Weather Stations






























Interactive Weather Map New forecast layout! Learn more

10-Day Weather Forecast

Advertisements
Track Severe Weather on mobile